Gordons, Illinois
Current Conditions -  °F | °C
As of 6:55 PM on Tuesday 21 Oct 2014 (Local Time) from KRSV Reporting Station
Scattered Clouds Scattered Clouds  
Wind Chill: 53°   Ceiling: Unl
Heat Index: 53°   Visibility: 10mi
Dew Point: 42°   Wind: 6mph
Humidity: 64%   Direction: 30°NNE
Pressure: 30.16"   Gusts: NA
Location:  39.0131°N, 87.7657°W
Report Text: KRSV 212355Z AUTO 03005KT 10SM SCT050 12/05 A3016 RMK AO2 T01190053 10183 20115
Loading
Personal Weather Stations






























Interactive Weather Map
Tropical Storm Tracking
New forecast layout! Learn more

10-Day Weather Forecast

Advertisements
Track Severe Weather on mobile